createdAt,value
2022-08-17T01:41:53.577Z,22.07
2022-08-17T01:45:32.737Z,24.00
2022-08-17T01:48:28.087Z,24.90
2022-08-17T01:51:22.796Z,22.52
2022-08-17T01:54:19.828Z,25.27
2022-08-17T01:57:15.509Z,25.23
2022-08-17T02:00:11.721Z,28.17
2022-08-17T02:03:16.490Z,28.27
2022-08-17T02:06:27.094Z,31.48
2022-08-17T02:09:23.326Z,31.30
2022-08-17T02:12:43.378Z,31.57
2022-08-17T02:15:37.906Z,28.63
2022-08-17T02:22:26.473Z,29.98
2022-08-17T02:25:23.871Z,30.48
2022-08-17T02:28:19.070Z,28.73
2022-08-17T02:31:18.312Z,35.88
2022-08-17T02:34:14.659Z,36.70
2022-08-17T02:37:09.069Z,34.88
2022-08-17T02:40:04.929Z,32.70
2022-08-17T02:43:00.351Z,34.23
2022-08-17T02:46:22.407Z,31.23
2022-08-17T02:49:17.424Z,25.48
2022-08-17T02:52:18.810Z,26.27
2022-08-17T02:55:52.969Z,28.30
2022-08-17T02:58:48.606Z,23.47
2022-08-17T03:01:50.559Z,23.38
2022-08-17T03:04:45.433Z,25.27
2022-08-17T03:07:39.941Z,30.17
2022-08-17T03:10:40.232Z,27.45
2022-08-17T03:20:16.743Z,27.90
2022-08-17T03:23:12.059Z,25.08
2022-08-17T03:26:12.377Z,25.27
2022-08-17T03:29:10.252Z,25.23
2022-08-17T03:39:12.175Z,27.38
2022-08-17T03:42:31.194Z,26.70
2022-08-17T03:45:43.197Z,28.07
2022-08-17T03:48:51.927Z,28.35
2022-08-17T04:01:38.937Z,27.73
2022-08-17T04:04:36.927Z,30.02
2022-08-17T04:07:31.937Z,25.40
2022-08-17T04:13:33.140Z,25.92
2022-08-17T04:19:30.213Z,27.10
2022-08-17T04:22:32.375Z,27.00
2022-08-17T04:25:32.494Z,23.50
2022-08-17T04:28:27.595Z,22.42
2022-08-17T04:31:24.479Z,21.50
2022-08-17T04:34:42.049Z,22.65
2022-08-17T04:37:24.172Z,20.27
2022-08-17T04:40:18.158Z,19.05
2022-08-17T06:14:07.141Z,18.52
2022-08-17T06:30:20.505Z,19.55
2022-08-17T07:31:52.114Z,15.70
2022-08-17T07:35:11.514Z,13.82
2022-08-17T07:37:48.962Z,12.32
2022-08-17T07:40:32.095Z,13.52
2022-08-17T07:43:22.340Z,12.83
2022-08-17T07:46:14.258Z,11.38
2022-08-17T07:49:20.228Z,12.27
2022-08-17T07:52:51.217Z,11.63
2022-08-17T08:01:25.686Z,10.40
2022-08-17T08:08:12.199Z,6.43
2022-08-17T08:11:12.907Z,6.82
2022-08-17T08:19:29.355Z,7.68
2022-08-17T08:22:11.605Z,6.50
2022-08-17T08:25:07.252Z,5.07
2022-08-17T11:21:49.903Z,2.28
2022-08-17T11:28:06.313Z,1.88
2022-08-17T11:31:17.335Z,2.35
2022-08-17T11:37:18.111Z,2.30
2022-08-17T11:40:09.050Z,2.42
2022-08-17T11:42:54.032Z,1.90
2022-08-17T14:08:37.292Z,2.25
2022-08-17T14:35:15.361Z,2.00
2022-08-17T14:45:30.421Z,27.42
2022-08-17T14:51:32.215Z,34.40
2022-08-17T14:54:05.825Z,40.60
2022-08-17T15:02:14.057Z,41.03
2022-08-17T17:08:43.650Z,21.67
2022-08-17T17:11:35.619Z,21.95
2022-08-17T17:14:07.649Z,21.08
2022-08-17T17:17:01.372Z,20.30
2022-08-17T17:20:00.950Z,20.17
2022-08-17T17:22:56.190Z,20.30
2022-08-17T22:17:47.190Z,44.33
2022-08-17T22:37:35.785Z,43.55
